Time;durP1;ratioP1;P1;durP2;ratioP2;P2;SDS_P1;SDS_P2;PMS_P1;PMS_P2;Temp;Humidity;BMP_temperature;BMP_pressure;BME280_temperature;BME280_humidity;BME280_pressure;Samples;Min_cycle;Max_cycle;Signal;HPM_P1;HPM_P2
2023/08/02 00:01:47;;;;;;;5.93;2.20;;;15.80;99.90;;;;;;5067038;28;20189;-71
2023/08/02 00:04:31;;;;;;;5.00;2.00;;;15.80;99.90;;;;;;5069570;28;20244;-72
2023/08/02 00:07:15;;;;;;;4.23;1.83;;;15.90;99.90;;;;;;5066860;28;20209;-72
2023/08/02 00:09:59;;;;;;;7.50;2.43;;;15.80;99.90;;;;;;5068540;28;20197;-70
2023/08/02 00:12:43;;;;;;;6.00;2.30;;;15.80;99.90;;;;;;5070042;28;20178;-70
2023/08/02 00:15:27;;;;;;;5.80;2.40;;;15.90;99.90;;;;;;5063026;28;20194;-70
2023/08/02 00:18:12;;;;;;;10.27;2.40;;;15.90;99.90;;;;;;5074494;28;20658;-71
2023/08/02 00:20:56;;;;;;;6.27;2.40;;;15.80;99.90;;;;;;5066150;28;20193;-71
2023/08/02 00:23:40;;;;;;;5.97;2.50;;;15.80;99.90;;;;;;5070759;28;20244;-72
2023/08/02 00:26:24;;;;;;;8.83;2.70;;;15.90;99.90;;;;;;5070236;28;20198;-71
2023/08/02 00:29:08;;;;;;;6.33;2.40;;;16.00;99.90;;;;;;5068171;28;20210;-70
2023/08/02 00:31:52;;;;;;;10.83;2.50;;;15.90;99.90;;;;;;5063955;28;20213;-72
2023/08/02 00:34:37;;;;;;;9.67;2.23;;;15.90;99.90;;;;;;5065851;28;20186;-71
2023/08/02 00:37:22;;;;;;;5.23;2.13;;;15.90;99.90;;;;;;5066533;28;20260;-71
2023/08/02 00:40:06;;;;;;;4.67;2.00;;;15.90;99.90;;;;;;5065056;28;20210;-71
2023/08/02 00:42:50;;;;;;;8.67;2.33;;;15.90;99.90;;;;;;5064611;28;20190;-72
2023/08/02 00:45:36;;;;;;;8.27;2.20;;;15.90;99.90;;;;;;5060110;28;20198;-72
2023/08/02 00:48:20;;;;;;;8.23;2.30;;;15.90;99.90;;;;;;5067707;28;20232;-72
2023/08/02 00:51:08;;;;;;;8.10;2.43;;;15.90;99.90;;;;;;5064406;28;20186;-70
2023/08/02 00:53:52;;;;;;;6.53;2.60;;;15.90;99.90;;;;;;5058276;28;20239;-72
2023/08/02 00:56:36;;;;;;;6.23;2.30;;;15.90;99.90;;;;;;5072740;28;20247;-72
2023/08/02 00:59:20;;;;;;;9.10;2.43;;;15.80;99.90;;;;;;5065041;28;20306;-71
2023/08/02 01:02:06;;;;;;;7.17;2.40;;;15.90;99.90;;;;;;5065072;28;20187;-71
2023/08/02 01:04:50;;;;;;;6.87;2.10;;;15.90;99.90;;;;;;5059529;28;20643;-72
2023/08/02 01:07:40;;;;;;;7.73;2.30;;;15.80;99.90;;;;;;5062171;28;20268;-71
2023/08/02 01:10:38;;;;;;;7.30;2.30;;;15.90;99.90;;;;;;5067300;28;20198;-72
2023/08/02 01:13:23;;;;;;;6.70;2.40;;;15.90;99.90;;;;;;5063942;28;20273;-71
2023/08/02 01:16:08;;;;;;;8.47;2.60;;;15.90;99.90;;;;;;5061371;28;20198;-70
2023/08/02 01:18:52;;;;;;;8.83;2.70;;;15.80;99.90;;;;;;5067968;28;20267;-71
2023/08/02 01:21:36;;;;;;;7.07;2.60;;;15.90;99.90;;;;;;5063301;28;20236;-72
2023/08/02 01:24:25;;;;;;;7.30;2.50;;;15.90;99.90;;;;;;5061729;28;20190;-70
2023/08/02 01:27:19;;;;;;;8.37;2.57;;;15.90;99.90;;;;;;5061269;28;20226;-71
2023/08/02 01:30:06;;;;;;;9.40;2.57;;;15.90;99.90;;;;;;5057332;28;20263;-71
2023/08/02 01:32:51;;;;;;;12.43;2.50;;;15.90;99.90;;;;;;5050193;28;20174;-71
2023/08/02 01:35:37;;;;;;;12.60;2.27;;;15.90;99.90;;;;;;5059371;28;20183;-72
2023/08/02 01:38:21;;;;;;;8.13;2.67;;;15.90;99.90;;;;;;5062368;28;20213;-70
2023/08/02 01:41:05;;;;;;;4.87;2.10;;;15.90;99.90;;;;;;5071426;28;20182;-71
2023/08/02 01:43:49;;;;;;;6.07;2.27;;;15.80;99.90;;;;;;5056071;28;20198;-72
2023/08/02 01:46:33;;;;;;;5.30;1.97;;;15.90;99.90;;;;;;5068172;28;20245;-71
2023/08/02 01:49:18;;;;;;;5.97;2.00;;;15.90;99.90;;;;;;5065297;28;20292;-72
2023/08/02 01:52:02;;;;;;;15.23;2.60;;;15.90;99.90;;;;;;5058562;28;20191;-71
2023/08/02 01:54:47;;;;;;;5.03;2.10;;;15.90;99.90;;;;;;5059039;28;20181;-72
2023/08/02 01:57:37;;;;;;;8.23;2.50;;;15.90;99.90;;;;;;5068344;28;20347;-69
2023/08/02 02:00:21;;;;;;;5.13;2.13;;;15.80;99.90;;;;;;5054605;28;20273;-73
2023/08/02 02:03:05;;;;;;;10.10;2.50;;;15.90;99.90;;;;;;5060452;28;20327;-70
2023/08/02 02:05:53;;;;;;;6.53;2.17;;;15.90;99.90;;;;;;5063224;28;20252;-72
2023/08/02 02:08:37;;;;;;;7.27;2.40;;;15.80;99.90;;;;;;5059349;28;20294;-70
2023/08/02 02:11:22;;;;;;;11.37;2.90;;;15.90;99.90;;;;;;5067623;28;20185;-72
2023/08/02 02:14:06;;;;;;;5.87;2.50;;;15.90;99.90;;;;;;5061515;28;20233;-70
2023/08/02 02:16:50;;;;;;;8.53;2.43;;;15.90;99.90;;;;;;5065513;28;20187;-71
2023/08/02 02:19:35;;;;;;;8.73;2.40;;;15.80;99.90;;;;;;5060134;28;20310;-72
2023/08/02 02:22:19;;;;;;;8.45;2.53;;;15.90;99.90;;;;;;5061409;28;20205;-71
2023/08/02 02:25:04;;;;;;;7.50;2.60;;;15.90;99.90;;;;;;5067621;28;20182;-71
2023/08/02 02:27:48;;;;;;;5.13;2.13;;;15.90;99.90;;;;;;5066122;28;20256;-72
2023/08/02 02:30:33;;;;;;;13.87;2.97;;;15.90;99.90;;;;;;5064585;28;20240;-72
2023/08/02 02:33:17;;;;;;;9.03;2.47;;;15.90;99.90;;;;;;5066110;28;20198;-70
2023/08/02 02:36:03;;;;;;;9.97;2.67;;;15.90;99.90;;;;;;5069026;28;20185;-72
2023/08/02 02:38:48;;;;;;;7.20;2.27;;;15.90;99.90;;;;;;5067269;28;20217;-72
2023/08/02 02:41:33;;;;;;;8.13;2.57;;;15.90;99.90;;;;;;5065554;28;20197;-73
2023/08/02 02:44:17;;;;;;;8.53;2.30;;;15.90;99.90;;;;;;5061930;28;20290;-72
2023/08/02 02:47:01;;;;;;;7.63;2.63;;;15.90;99.90;;;;;;5062102;28;20315;-72
2023/08/02 02:49:45;;;;;;;12.03;2.97;;;15.90;99.90;;;;;;5065161;28;20308;-71
2023/08/02 02:52:29;;;;;;;7.23;2.30;;;15.90;99.90;;;;;;5067831;28;20321;-70
2023/08/02 02:55:13;;;;;;;6.37;2.90;;;15.90;99.90;;;;;;5066749;28;20189;-72
2023/08/02 02:57:57;;;;;;;12.40;2.70;;;15.80;99.90;;;;;;5064281;28;20294;-71
2023/08/02 03:00:42;;;;;;;8.97;2.63;;;15.90;99.90;;;;;;5071429;28;20241;-72
2023/08/02 03:03:26;;;;;;;9.93;2.97;;;15.80;99.90;;;;;;5069499;28;20186;-72
2023/08/02 03:06:10;;;;;;;8.57;2.83;;;15.80;99.90;;;;;;5065977;28;20681;-71
2023/08/02 03:08:54;;;;;;;12.63;2.73;;;15.90;99.90;;;;;;5063479;28;20221;-72
2023/08/02 03:11:38;;;;;;;7.33;2.33;;;15.90;99.90;;;;;;5062372;28;20195;-71
2023/08/02 03:14:22;;;;;;;7.83;2.90;;;15.90;99.90;;;;;;5068018;28;20258;-71
2023/08/02 03:17:06;;;;;;;7.83;2.47;;;15.90;99.90;;;;;;5060923;28;20261;-69
2023/08/02 03:19:50;;;;;;;6.27;2.50;;;15.90;99.90;;;;;;5056254;28;20662;-72
2023/08/02 03:22:35;;;;;;;8.40;3.00;;;15.90;99.90;;;;;;5064108;28;20729;-72
2023/08/02 03:25:18;;;;;;;12.17;2.63;;;15.90;99.90;;;;;;5067289;28;20274;-73
2023/08/02 03:28:03;;;;;;;10.13;2.97;;;15.80;99.90;;;;;;5066812;28;20720;-71
2023/08/02 03:30:47;;;;;;;5.87;2.73;;;15.90;99.90;;;;;;5069310;28;20186;-72
2023/08/02 03:33:32;;;;;;;7.30;3.03;;;15.30;99.90;;;;;;5060087;28;20297;-70
2023/08/02 03:36:17;;;;;;;12.37;2.97;;;16.10;99.90;;;;;;5064237;28;20255;-69
2023/08/02 03:39:01;;;;;;;9.70;2.83;;;15.80;99.90;;;;;;5060809;28;20229;-72
2023/08/02 03:41:45;;;;;;;8.60;2.83;;;15.80;99.90;;;;;;5067519;28;20193;-72
2023/08/02 03:44:29;;;;;;;5.77;2.60;;;15.80;99.90;;;;;;5070047;28;20197;-71
2023/08/02 03:47:13;;;;;;;12.77;3.10;;;15.80;99.90;;;;;;5063008;28;20216;-71
2023/08/02 03:49:57;;;;;;;8.83;2.73;;;15.80;99.90;;;;;;5064693;28;20182;-72
2023/08/02 03:52:41;;;;;;;13.03;3.67;;;15.80;99.90;;;;;;5063549;28;20246;-72
2023/08/02 03:55:26;;;;;;;6.87;2.93;;;15.80;99.90;;;;;;5065182;28;20225;-71
2023/08/02 03:58:10;;;;;;;5.73;2.63;;;15.80;99.90;;;;;;5069598;28;20270;-72
2023/08/02 04:00:55;;;;;;;8.33;3.20;;;15.80;99.90;;;;;;5061312;28;20185;-71
2023/08/02 04:03:39;;;;;;;7.82;2.78;;;15.80;99.90;;;;;;5061947;28;20210;-72
2023/08/02 04:06:23;;;;;;;16.37;3.40;;;15.80;99.90;;;;;;5062677;28;20259;-70
2023/08/02 04:09:07;;;;;;;6.90;3.07;;;15.80;99.90;;;;;;5068701;28;20228;-71
2023/08/02 04:11:51;;;;;;;7.83;3.00;;;15.80;99.90;;;;;;5063201;28;20236;-72
2023/08/02 04:14:35;;;;;;;8.03;3.23;;;15.80;99.90;;;;;;5062275;28;20241;-71
2023/08/02 04:17:19;;;;;;;12.13;4.00;;;15.80;99.90;;;;;;5069855;28;20190;-71
2023/08/02 04:20:03;;;;;;;8.80;3.27;;;15.70;99.90;;;;;;5065813;28;20181;-72
2023/08/02 04:22:49;;;;;;;8.83;3.37;;;15.70;99.90;;;;;;5060871;28;20409;-71
2023/08/02 04:25:34;;;;;;;10.37;3.20;;;15.70;99.90;;;;;;5062464;28;20179;-71
2023/08/02 04:28:18;;;;;;;11.37;4.00;;;15.70;99.90;;;;;;5062750;28;20264;-72
2023/08/02 04:31:02;;;;;;;10.67;4.93;;;15.70;99.90;;;;;;5062600;28;20233;-72
2023/08/02 04:33:46;;;;;;;10.67;5.20;;;15.70;99.90;;;;;;5059502;28;20257;-72
2023/08/02 04:36:31;;;;;;;15.00;5.60;;;15.70;99.90;;;;;;5066924;28;20262;-71
2023/08/02 04:39:15;;;;;;;12.40;5.77;;;15.70;99.90;;;;;;5056121;28;20230;-72
2023/08/02 04:42:02;;;;;;;13.23;6.00;;;15.70;99.90;;;;;;5066808;28;20249;-71
2023/08/02 04:44:46;;;;;;;11.53;5.60;;;15.70;99.90;;;;;;5063823;28;20194;-73
2023/08/02 04:47:30;;;;;;;11.67;5.70;;;15.70;99.90;;;;;;5062120;28;20305;-71
2023/08/02 04:50:14;;;;;;;10.50;5.33;;;15.70;99.90;;;;;;5057380;28;20323;-70
2023/08/02 04:52:58;;;;;;;12.23;5.40;;;15.70;99.90;;;;;;5060933;28;20186;-72
2023/08/02 04:55:44;;;;;;;10.03;4.97;;;15.70;99.90;;;;;;5065381;28;20186;-72
2023/08/02 04:58:28;;;;;;;11.83;4.60;;;15.70;99.90;;;;;;5060859;28;20217;-71
2023/08/02 05:01:13;;;;;;;10.23;4.90;;;15.70;99.90;;;;;;5061839;28;20231;-72
2023/08/02 05:03:57;;;;;;;6.27;4.20;;;15.70;99.90;;;;;;5067423;28;20232;-72
2023/08/02 05:06:44;;;;;;;10.20;3.97;;;15.70;99.90;;;;;;5061487;28;20225;-70
2023/08/02 05:09:28;;;;;;;7.20;4.33;;;15.70;99.90;;;;;;5064920;28;20213;-72
2023/08/02 05:12:12;;;;;;;8.10;3.80;;;15.60;99.90;;;;;;5084373;28;20190;-72
2023/08/02 05:14:59;;;;;;;9.57;3.77;;;15.60;99.90;;;;;;5061083;28;20190;-72
2023/08/02 05:17:43;;;;;;;8.10;4.27;;;15.70;99.90;;;;;;5065696;28;20264;-71
2023/08/02 05:20:31;;;;;;;12.70;4.30;;;15.60;99.90;;;;;;5067127;28;20178;-71
2023/08/02 05:23:16;;;;;;;10.13;4.40;;;15.60;99.90;;;;;;5066828;28;20262;-71
2023/08/02 05:26:03;;;;;;;12.20;3.93;;;15.60;99.90;;;;;;5064655;28;20189;-72
2023/08/02 05:28:48;;;;;;;8.67;4.03;;;15.80;99.90;;;;;;5064231;28;20272;-71
2023/08/02 05:31:32;;;;;;;10.23;3.53;;;15.70;99.90;;;;;;5066004;28;20315;-72
2023/08/02 05:34:16;;;;;;;8.67;3.87;;;15.80;99.90;;;;;;5062578;28;20185;-72
2023/08/02 05:37:00;;;;;;;7.93;3.40;;;15.70;99.90;;;;;;5066476;28;20378;-69
2023/08/02 05:39:44;;;;;;;9.80;3.87;;;15.80;99.90;;;;;;5066272;28;20243;-70
2023/08/02 05:42:28;;;;;;;7.90;3.70;;;15.80;99.90;;;;;;5065392;28;20272;-70
2023/08/02 05:45:12;;;;;;;7.57;4.13;;;15.80;99.90;;;;;;5062785;28;20270;-72
2023/08/02 05:47:57;;;;;;;7.63;3.70;;;15.90;99.90;;;;;;5062580;28;20202;-70
2023/08/02 05:50:41;;;;;;;11.87;4.37;;;15.90;99.90;;;;;;5071215;28;20198;-71
2023/08/02 05:53:26;;;;;;;10.30;3.80;;;16.00;99.90;;;;;;5058546;28;20228;-70
2023/08/02 05:56:10;;;;;;;8.27;3.90;;;15.90;99.90;;;;;;5084776;28;20193;-72
2023/08/02 05:58:54;;;;;;;12.57;4.27;;;15.60;99.90;;;;;;5066037;28;20250;-73
2023/08/02 06:01:38;;;;;;;9.57;4.13;;;16.00;99.90;;;;;;5061922;28;20335;-72
2023/08/02 06:04:22;;;;;;;15.07;5.80;;;16.10;99.90;;;;;;5062490;28;20225;-72
2023/08/02 06:07:06;;;;;;;12.82;5.40;;;16.10;99.90;;;;;;5062516;28;20417;-72
2023/08/02 06:09:52;;;;;;;10.30;4.73;;;16.10;99.90;;;;;;5065925;28;20510;-72
2023/08/02 06:12:36;;;;;;;9.03;5.00;;;16.10;99.90;;;;;;5064816;28;20266;-72
2023/08/02 06:15:20;;;;;;;10.80;4.73;;;15.60;99.90;;;;;;5066191;28;20189;-72
2023/08/02 06:18:04;;;;;;;9.67;4.53;;;16.20;99.90;;;;;;5071546;28;20367;-71
2023/08/02 06:20:48;;;;;;;7.50;4.23;;;16.20;99.90;;;;;;5067427;28;20186;-71
2023/08/02 06:23:32;;;;;;;7.87;3.97;;;16.20;99.90;;;;;;5063939;28;20239;-72
2023/08/02 06:26:17;;;;;;;7.73;4.07;;;16.00;99.90;;;;;;5063192;28;20182;-70
2023/08/02 06:29:02;;;;;;;9.50;4.28;;;;;;;;;;5052914;28;20583;-71
2023/08/02 06:31:47;;;;;;;5.25;3.97;;;;;;;;;;5061988;28;20194;-73
2023/08/02 06:34:32;;;;;;;8.40;3.67;;;;;;;;;;5062575;28;20182;-71
2023/08/02 06:37:17;;;;;;;6.88;3.80;;;;;;;;;;5056577;28;20265;-72
2023/08/02 06:40:02;;;;;;;9.63;4.10;;;;;;;;;;5059024;28;20575;-72
2023/08/02 06:42:47;;;;;;;7.47;4.32;;;;;;;;;;5062142;28;20189;-70
2023/08/02 06:45:32;;;;;;;8.50;5.05;;;;;;;;;;5067990;28;20181;-72
2023/08/02 06:48:19;;;;;;;7.60;4.93;;;;;;;;;;5066507;28;20234;-72
2023/08/02 06:51:04;;;;;;;15.70;6.90;;;;;;;;;;5064528;28;20197;-72
2023/08/02 06:53:50;;;;;;;10.18;5.95;;;;;;;;;;5061079;28;20194;-71
2023/08/02 06:56:34;;;;;;;12.47;5.93;;;16.20;99.90;;;;;;5055473;28;20245;-72
2023/08/02 06:59:18;;;;;;;24.77;7.80;;;16.40;99.90;;;;;;5063323;28;20226;-72
2023/08/02 07:02:02;;;;;;;16.33;6.72;;;16.40;99.90;;;;;;5063981;28;20198;-72
2023/08/02 07:04:47;;;;;;;15.37;8.00;;;;;;;;;;5064424;28;20178;-72
2023/08/02 07:07:32;;;;;;;11.93;5.80;;;;;;;;;;5057588;28;20272;-69
2023/08/02 07:10:16;;;;;;;18.77;8.25;;;16.50;99.90;;;;;;5064307;28;20186;-70
2023/08/02 07:13:01;;;;;;;19.23;9.20;;;;;;;;;;5061224;28;20206;-73
2023/08/02 07:15:46;;;;;;;11.80;5.95;;;;;;;;;;5069438;28;20194;-72
2023/08/02 07:18:31;;;;;;;16.00;8.30;;;;;;;;;;5066242;28;20288;-72
2023/08/02 07:21:15;;;;;;;11.73;4.87;;;16.60;99.90;;;;;;5067016;28;20198;-72
2023/08/02 07:23:59;;;;;;;13.32;6.82;;;16.60;99.90;;;;;;5065665;28;20186;-70
2023/08/02 07:26:43;;;;;;;7.30;4.37;;;16.60;99.90;;;;;;5071413;28;20178;-72
2023/08/02 07:29:27;;;;;;;10.00;4.57;;;16.60;99.90;;;;;;5066733;28;20785;-71
2023/08/02 07:32:11;;;;;;;19.40;10.15;;;16.60;99.90;;;;;;5069824;28;20573;-72
2023/08/02 07:34:57;;;;;;;19.77;8.90;;;16.70;99.90;;;;;;5061973;28;20258;-70
2023/08/02 07:37:41;;;;;;;13.98;5.97;;;16.70;99.90;;;;;;5068901;28;20310;-72
2023/08/02 07:40:25;;;;;;;13.60;6.00;;;16.50;99.90;;;;;;5063365;28;20216;-70
2023/08/02 07:43:10;;;;;;;16.77;8.25;;;16.80;99.90;;;;;;5061933;28;20237;-73
2023/08/02 07:45:54;;;;;;;20.38;8.48;;;16.80;99.90;;;;;;5069835;28;20252;-69
2023/08/02 07:48:38;;;;;;;15.13;9.15;;;16.90;99.90;;;;;;5064493;28;20273;-73
2023/08/02 07:51:23;;;;;;;11.40;5.20;;;17.00;99.90;;;;;;5064997;28;20181;-73
2023/08/02 07:54:07;;;;;;;15.75;9.60;;;;;;;;;;5064836;28;20205;-73
2023/08/02 07:56:52;;;;;;;13.73;5.38;;;;;;;;;;5071253;28;20194;-71
2023/08/02 07:59:37;;;;;;;8.60;4.78;;;;;;;;;;5062837;28;20336;-73
2023/08/02 08:02:21;;;;;;;14.10;7.75;;;17.00;99.90;;;;;;5069250;28;20198;-72
2023/08/02 08:05:07;;;;;;;14.60;7.82;;;17.20;99.90;;;;;;5066266;28;20195;-73
2023/08/02 08:07:51;;;;;;;6.82;4.25;;;17.30;99.90;;;;;;5066319;28;20276;-72
2023/08/02 08:10:36;;;;;;;8.70;3.70;;;17.30;99.90;;;;;;5059647;28;20261;-72
2023/08/02 08:13:20;;;;;;;8.40;3.10;;;17.30;99.90;;;;;;5064786;28;20178;-71
2023/08/02 08:16:04;;;;;;;6.90;3.30;;;17.40;99.90;;;;;;5060840;28;20190;-72
2023/08/02 08:18:49;;;;;;;6.68;2.70;;;;;;;;;;5064370;28;20230;-72
2023/08/02 08:21:34;;;;;;;8.13;2.90;;;;;;;;;;5066093;28;20186;-70
2023/08/02 08:24:18;;;;;;;8.68;3.20;;;17.30;99.90;;;;;;5064714;28;20183;-72
2023/08/02 08:27:03;;;;;;;10.93;2.63;;;17.40;99.90;;;;;;5068470;28;20194;-72
2023/08/02 08:29:47;;;;;;;6.35;2.80;;;17.50;99.90;;;;;;5064672;28;20232;-71
2023/08/02 08:32:32;;;;;;;6.32;3.80;;;17.50;99.90;;;;;;5058538;28;20235;-71
2023/08/02 08:35:16;;;;;;;7.97;2.95;;;17.40;99.90;;;;;;5069003;28;20189;-72
2023/08/02 08:38:01;;;;;;;3.47;2.53;;;17.50;99.90;;;;;;5063961;28;20288;-72
2023/08/02 08:40:54;;;;;;;4.55;2.50;;;17.40;99.90;;;;;;5071592;28;20185;-73
2023/08/02 08:43:39;;;;;;;3.97;2.42;;;17.50;99.90;;;;;;5064528;28;20319;-70
2023/08/02 08:46:24;;;;;;;7.88;3.33;;;17.50;99.90;;;;;;5070457;28;20178;-72
2023/08/02 08:49:08;;;;;;;6.47;3.00;;;17.50;99.90;;;;;;5070046;28;20767;-70
2023/08/02 08:51:54;;;;;;;5.50;2.80;;;17.40;99.90;;;;;;5063066;28;20189;-72
2023/08/02 08:54:42;;;;;;;7.60;3.13;;;17.50;99.90;;;;;;5062866;28;20185;-72
2023/08/02 08:57:31;;;;;;;7.47;2.38;;;17.50;99.90;;;;;;5063520;28;20194;-72
2023/08/02 09:00:15;;;;;;;7.45;2.90;;;17.50;99.90;;;;;;5064603;28;20245;-71
2023/08/02 09:03:00;;;;;;;8.90;2.97;;;17.50;99.90;;;;;;5066719;28;20598;-72
2023/08/02 09:05:45;;;;;;;5.47;3.17;;;17.40;99.90;;;;;;5064192;28;20699;-72
2023/08/02 09:08:42;;;;;;;6.25;3.10;;;17.40;99.90;;;;;;5062643;28;20217;-72
2023/08/02 09:11:28;;;;;;;6.88;3.47;;;17.30;99.90;;;;;;5064724;28;20194;-73
2023/08/02 09:14:16;;;;;;;6.00;2.65;;;17.30;99.90;;;;;;5064949;28;20186;-73
2023/08/02 09:17:02;;;;;;;5.47;3.15;;;17.30;99.90;;;;;;5066118;28;20237;-73
2023/08/02 09:19:47;;;;;;;6.47;3.15;;;17.30;99.90;;;;;;5057322;28;20756;-72
2023/08/02 09:22:31;;;;;;;5.90;3.42;;;17.30;99.90;;;;;;5061458;28;20185;-72
2023/08/02 09:25:27;;;;;;;7.32;3.33;;;17.30;99.90;;;;;;5068293;28;20182;-72
2023/08/02 09:28:12;;;;;;;6.72;3.25;;;17.30;99.90;;;;;;5064654;28;20214;-72
2023/08/02 09:30:55;;;;;;;8.32;3.03;;;17.30;99.90;;;;;;5068218;28;20574;-72
2023/08/02 09:33:51;;;;;;;4.90;2.83;;;17.10;99.90;;;;;;5060533;28;20193;-72
2023/08/02 09:36:36;;;;;;;4.93;2.80;;;17.20;99.90;;;;;;5058092;28;20183;-72
2023/08/02 09:39:20;;;;;;;9.07;3.28;;;17.20;99.90;;;;;;5064896;28;20245;-71
2023/08/02 09:42:13;;;;;;;5.38;2.70;;;17.20;99.90;;;;;;5065095;28;20631;-72
2023/08/02 09:45:03;;;;;;;8.23;3.05;;;;;;;;;;5060034;28;20229;-72
2023/08/02 09:47:51;;;;;;;5.05;2.72;;;;;;;;;;5062373;28;20209;-72
2023/08/02 09:50:55;;;;;;;5.60;2.88;;;17.10;99.90;;;;;;5061932;28;20705;-69
2023/08/02 09:53:40;;;;;;;7.00;3.13;;;17.20;99.90;;;;;;5068750;28;20189;-69
2023/08/02 09:56:24;;;;;;;4.85;2.88;;;17.20;99.90;;;;;;5067261;28;20182;-72
2023/08/02 09:59:09;;;;;;;7.55;3.58;;;17.20;99.90;;;;;;5054415;28;20237;-71
2023/08/02 10:01:55;;;;;;;4.18;2.70;;;17.10;99.90;;;;;;5064892;28;20193;-72
2023/08/02 10:04:42;;;;;;;4.75;2.55;;;17.10;99.90;;;;;;5056070;28;20225;-71
2023/08/02 10:07:30;;;;;;;4.50;2.80;;;17.10;99.90;;;;;;5062806;28;20206;-72
2023/08/02 10:10:21;;;;;;;4.47;2.70;;;17.10;99.90;;;;;;5067749;28;20193;-70
2023/08/02 10:13:14;;;;;;;5.33;2.57;;;17.10;99.90;;;;;;5062156;28;20238;-71
2023/08/02 10:15:58;;;;;;;5.78;2.90;;;17.10;99.90;;;;;;5063903;28;20220;-72
2023/08/02 10:18:44;;;;;;;4.05;2.70;;;17.10;99.90;;;;;;5067532;28;20270;-72
2023/08/02 10:21:33;;;;;;;6.38;2.97;;;17.10;99.90;;;;;;5061382;28;20270;-71
2023/08/02 10:24:18;;;;;;;3.42;2.40;;;17.00;99.90;;;;;;5060334;28;20224;-72
2023/08/02 10:27:07;;;;;;;4.10;2.80;;;17.00;99.90;;;;;;5065299;28;20213;-72
2023/08/02 10:29:52;;;;;;;3.55;2.90;;;17.00;99.90;;;;;;5062044;28;20195;-72
2023/08/02 10:32:36;;;;;;;6.85;2.88;;;17.00;99.90;;;;;;5058351;28;20228;-72
2023/08/02 10:35:53;;;;;;;7.30;3.35;;;17.00;99.90;;;;;;5067177;28;20185;-69
2023/08/02 10:38:47;;;;;;;3.95;2.85;;;17.00;99.90;;;;;;5067745;28;20221;-72
2023/08/02 10:41:31;;;;;;;7.90;3.05;;;17.00;99.90;;;;;;5056643;28;20186;-72
2023/08/02 10:44:15;;;;;;;6.03;3.30;;;17.00;99.90;;;;;;5061109;28;20221;-71
2023/08/02 10:47:29;;;;;;;5.60;3.22;;;17.00;99.90;;;;;;5069764;28;20249;-72
2023/08/02 10:50:48;;;;;;;4.28;2.78;;;17.10;99.90;;;;;;5069880;28;20189;-71
2023/08/02 10:53:32;;;;;;;6.32;3.63;;;17.20;99.90;;;;;;5063585;28;20554;-72
2023/08/02 10:56:17;;;;;;;5.15;3.10;;;17.20;99.90;;;;;;5069941;28;20198;-70
2023/08/02 10:59:01;;;;;;;6.38;3.25;;;17.20;99.90;;;;;;5067980;28;20222;-72
2023/08/02 11:02:02;;;;;;;8.20;2.92;;;17.30;99.90;;;;;;5066625;28;20196;-71
2023/08/02 11:04:47;;;;;;;3.42;2.78;;;17.20;99.90;;;;;;5058105;28;20256;-73
2023/08/02 11:07:31;;;;;;;2.97;2.72;;;17.30;99.90;;;;;;5065704;28;20292;-72
2023/08/02 11:10:15;;;;;;;4.60;2.85;;;17.20;99.90;;;;;;5064841;28;20179;-72
2023/08/02 11:12:59;;;;;;;3.85;3.17;;;17.20;99.90;;;;;;5057129;28;20186;-70
2023/08/02 11:15:44;;;;;;;3.15;2.30;;;17.20;99.90;;;;;;5063769;28;20240;-69
2023/08/02 11:18:31;;;;;;;3.92;2.67;;;17.30;99.90;;;;;;5069214;28;20280;-71
2023/08/02 11:21:15;;;;;;;2.60;2.22;;;17.30;99.90;;;;;;5072020;28;20254;-72
2023/08/02 11:24:00;;;;;;;2.97;2.50;;;17.30;99.90;;;;;;5069772;28;20300;-72
2023/08/02 11:26:56;;;;;;;2.40;2.20;;;17.20;99.90;;;;;;5068780;28;20194;-72
2023/08/02 11:29:40;;;;;;;3.40;2.47;;;17.20;99.90;;;;;;5071399;28;20216;-72
2023/08/02 11:32:25;;;;;;;4.40;2.30;;;17.20;99.90;;;;;;5072265;28;20190;-72
2023/08/02 11:35:17;;;;;;;2.70;2.38;;;17.20;99.90;;;;;;5064916;28;20326;-73
2023/08/02 11:38:03;;;;;;;2.55;2.22;;;17.10;99.90;;;;;;5065521;28;20301;-72
2023/08/02 11:40:47;;;;;;;4.25;2.38;;;17.10;99.90;;;;;;5056362;28;20193;-72
2023/08/02 11:43:35;;;;;;;2.15;1.95;;;17.20;99.90;;;;;;5071491;28;20618;-72
2023/08/02 11:46:21;;;;;;;2.30;2.10;;;17.10;99.90;;;;;;5071496;28;20189;-72
2023/08/02 11:49:07;;;;;;;3.40;1.73;;;17.20;99.90;;;;;;5067806;28;20256;-71
2023/08/02 11:51:51;;;;;;;3.10;2.15;;;17.20;99.90;;;;;;5064802;28;20190;-71
2023/08/02 11:54:35;;;;;;;2.20;2.00;;;17.20;99.90;;;;;;5068551;28;20186;-72
2023/08/02 11:57:20;;;;;;;1.92;1.83;;;17.20;99.90;;;;;;5066081;28;20198;-72
2023/08/02 12:00:06;;;;;;;2.17;1.98;;;17.20;99.90;;;;;;5062718;28;20241;-72
2023/08/02 12:02:50;;;;;;;2.90;2.20;;;17.20;99.90;;;;;;5070350;28;20180;-72
2023/08/02 12:05:34;;;;;;;2.25;2.08;;;17.20;99.90;;;;;;5064565;28;20240;-72
2023/08/02 12:08:21;;;;;;;2.92;2.60;;;17.20;99.90;;;;;;5064623;28;20230;-72
2023/08/02 12:11:13;;;;;;;1.75;1.65;;;17.20;99.90;;;;;;5070529;28;20189;-71
2023/08/02 12:14:00;;;;;;;1.80;1.70;;;17.30;99.90;;;;;;5065332;28;20190;-70
2023/08/02 12:16:44;;;;;;;2.25;1.80;;;17.20;99.90;;;;;;5071519;28;20233;-72
2023/08/02 12:19:38;;;;;;;2.75;1.83;;;17.30;99.90;;;;;;5065078;28;20222;-70
2023/08/02 12:22:22;;;;;;;1.70;1.60;;;17.30;99.90;;;;;;5062647;28;20198;-70
2023/08/02 12:25:07;;;;;;;1.80;1.70;;;17.40;99.90;;;;;;5060063;28;20677;-71
2023/08/02 12:28:08;;;;;;;1.80;1.63;;;17.40;99.90;;;;;;5066268;28;20260;-72
2023/08/02 12:31:03;;;;;;;1.48;1.38;;;17.40;99.90;;;;;;5071145;28;20175;-72
2023/08/02 12:33:48;;;;;;;1.88;1.77;;;17.40;99.90;;;;;;5065283;28;20276;-72
2023/08/02 12:36:32;;;;;;;3.55;2.30;;;17.30;99.90;;;;;;5066210;28;20257;-71
2023/08/02 12:39:17;;;;;;;5.43;3.28;;;17.50;99.90;;;;;;5064409;28;20314;-72
2023/08/02 12:42:01;;;;;;;10.25;7.18;;;17.50;99.90;;;;;;5060560;28;20210;-70
2023/08/02 12:44:45;;;;;;;9.98;7.97;;;17.50;99.90;;;;;;5070305;28;20265;-71
2023/08/02 12:47:29;;;;;;;3.80;3.15;;;17.60;99.90;;;;;;5067567;28;20206;-72
2023/08/02 12:50:13;;;;;;;2.72;1.90;;;17.60;99.90;;;;;;5057375;28;20203;-73
2023/08/02 12:52:57;;;;;;;2.35;1.90;;;17.70;99.90;;;;;;5067495;28;20232;-72
2023/08/02 12:55:42;;;;;;;2.17;1.98;;;17.60;99.90;;;;;;5064271;28;20264;-72
2023/08/02 12:58:26;;;;;;;3.28;2.13;;;17.70;99.90;;;;;;5065608;28;20241;-72
2023/08/02 13:01:10;;;;;;;11.90;4.72;;;17.70;99.90;;;;;;5065634;28;20251;-71
2023/08/02 13:03:54;;;;;;;7.13;3.55;;;17.80;99.90;;;;;;5067930;28;20209;-73
2023/08/02 13:06:38;;;;;;;7.32;2.90;;;17.80;99.90;;;;;;5067138;28;20205;-73
2023/08/02 13:09:22;;;;;;;3.00;2.67;;;17.90;99.90;;;;;;5066398;28;20344;-70
2023/08/02 13:12:07;;;;;;;4.53;3.45;;;17.90;99.90;;;;;;5067498;28;20305;-70
2023/08/02 13:14:51;;;;;;;8.45;5.25;;;18.00;99.90;;;;;;5061990;28;20197;-72
2023/08/02 13:17:35;;;;;;;6.70;5.30;;;18.00;99.90;;;;;;5061741;28;20252;-72
2023/08/02 13:20:19;;;;;;;10.80;4.97;;;18.10;99.90;;;;;;5056597;28;20245;-73
2023/08/02 13:23:03;;;;;;;8.18;4.88;;;18.10;99.90;;;;;;5059827;28;20201;-72
2023/08/02 13:25:47;;;;;;;13.82;6.18;;;18.10;99.90;;;;;;5068587;28;20182;-72
2023/08/02 13:28:31;;;;;;;4.28;3.17;;;18.20;99.90;;;;;;5066806;28;20240;-70
2023/08/02 13:31:16;;;;;;;2.70;2.50;;;18.30;99.90;;;;;;5066966;28;20572;-70
2023/08/02 13:34:00;;;;;;;5.30;2.63;;;18.30;99.90;;;;;;5061260;28;20256;-72
2023/08/02 13:36:46;;;;;;;4.28;2.70;;;18.30;99.90;;;;;;5062324;28;20272;-71
2023/08/02 13:39:30;;;;;;;6.05;3.20;;;18.20;99.90;;;;;;5065183;28;20218;-70
2023/08/02 13:42:14;;;;;;;4.43;3.03;;;18.40;99.90;;;;;;5056763;28;20194;-70
2023/08/02 13:44:59;;;;;;;3.42;2.28;;;18.40;99.90;;;;;;5063927;28;20660;-72
2023/08/02 13:47:43;;;;;;;3.75;2.30;;;18.50;99.90;;;;;;5064316;28;20229;-69
2023/08/02 13:50:28;;;;;;;5.10;2.80;;;18.60;99.90;;;;;;5069444;28;20671;-72
2023/08/02 13:53:12;;;;;;;3.17;2.10;;;18.60;99.90;;;;;;5066596;28;20220;-72
2023/08/02 13:55:56;;;;;;;5.47;2.80;;;18.60;99.90;;;;;;5064076;28;20185;-72
2023/08/02 13:58:40;;;;;;;4.90;3.63;;;18.60;99.90;;;;;;5066518;28;20229;-73
2023/08/02 14:01:24;;;;;;;3.05;2.80;;;18.60;99.90;;;;;;5064997;28;20221;-72
2023/08/02 14:04:08;;;;;;;3.65;2.70;;;18.60;99.90;;;;;;5061279;28;20198;-72
2023/08/02 14:06:52;;;;;;;6.70;2.25;;;18.60;99.90;;;;;;5067322;28;20954;-72
2023/08/02 14:09:38;;;;;;;2.05;1.85;;;18.70;99.90;;;;;;5058220;28;20190;-73
2023/08/02 14:12:22;;;;;;;2.17;1.98;;;18.70;99.90;;;;;;5061816;28;20247;-73
2023/08/02 14:15:07;;;;;;;2.30;1.88;;;18.70;99.90;;;;;;5065301;28;20189;-73
2023/08/02 14:17:52;;;;;;;2.60;2.25;;;18.70;99.90;;;;;;5062005;28;20648;-72
2023/08/02 14:20:36;;;;;;;3.20;2.17;;;18.70;99.90;;;;;;5060082;28;20187;-71
2023/08/02 14:23:23;;;;;;;5.90;2.95;;;18.70;99.90;;;;;;5062458;28;20199;-72
2023/08/02 14:26:07;;;;;;;3.10;2.80;;;18.70;99.90;;;;;;5057369;28;20198;-73